createdAt,value
2023-05-24T00:01:32.770Z,13.73
2023-05-24T00:04:00.963Z,16.17
2023-05-24T00:06:28.589Z,16.77
2023-05-24T00:08:56.492Z,15.02
2023-05-24T00:11:24.928Z,17.27
2023-05-24T00:13:52.328Z,20.80
2023-05-24T00:16:19.829Z,20.75
2023-05-24T00:18:48.269Z,10.77
2023-05-24T00:21:16.400Z,9.02
2023-05-24T00:23:44.231Z,9.07
2023-05-24T00:26:11.729Z,12.57
2023-05-24T00:28:39.327Z,11.70
2023-05-24T00:31:11.079Z,10.68
2023-05-24T00:33:39.511Z,8.05
2023-05-24T00:36:08.409Z,9.73
2023-05-24T00:38:37.775Z,14.07
2023-05-24T00:41:05.286Z,13.68
2023-05-24T00:43:32.719Z,9.82
2023-05-24T00:46:15.358Z,9.32
2023-05-24T00:48:43.864Z,12.70
2023-05-24T00:51:13.154Z,20.20
2023-05-24T00:53:44.599Z,12.68
2023-05-24T00:56:13.995Z,12.30
2023-05-24T00:58:43.071Z,9.23
2023-05-24T01:01:11.074Z,10.07
2023-05-24T01:03:39.658Z,11.50
2023-05-24T01:06:09.493Z,8.35
2023-05-24T01:08:40.509Z,8.25
2023-05-24T01:11:31.160Z,11.15
2023-05-24T01:14:21.388Z,12.43
2023-05-24T01:16:58.123Z,8.05
2023-05-24T01:20:00.140Z,7.85
2023-05-24T01:22:36.576Z,14.90
2023-05-24T01:25:29.885Z,18.92
2023-05-24T01:27:58.809Z,7.45
2023-05-24T01:30:28.850Z,11.70
2023-05-24T01:32:56.464Z,13.95
2023-05-24T01:35:25.267Z,9.57
2023-05-24T01:37:52.687Z,8.90
2023-05-24T01:40:20.091Z,10.38
2023-05-24T01:43:03.331Z,8.23
2023-05-24T01:45:40.749Z,6.55
2023-05-24T01:48:19.592Z,7.82
2023-05-24T01:50:58.048Z,6.97
2023-05-24T01:53:33.573Z,11.38
2023-05-24T01:56:06.520Z,15.20
2023-05-24T01:58:36.760Z,12.23
2023-05-24T02:01:05.113Z,13.95
2023-05-24T02:03:32.840Z,11.98
2023-05-24T02:06:00.361Z,9.07
2023-05-24T02:08:28.057Z,18.55
2023-05-24T02:10:55.515Z,11.90
2023-05-24T02:13:22.881Z,5.35
2023-05-24T02:15:51.882Z,12.77
2023-05-24T02:18:19.393Z,8.15
2023-05-24T02:20:47.176Z,12.48
2023-05-24T02:23:14.824Z,14.98
2023-05-24T02:25:42.328Z,8.27
2023-05-24T02:28:09.868Z,40.20
2023-05-24T02:30:38.468Z,8.50
2023-05-24T02:33:06.827Z,10.80
2023-05-24T02:35:34.468Z,8.93
2023-05-24T02:38:04.027Z,8.80
2023-05-24T02:40:31.435Z,16.00
2023-05-24T02:43:07.515Z,6.10
2023-05-24T02:45:36.658Z,11.30
2023-05-24T02:48:04.248Z,8.27
2023-05-24T02:50:31.750Z,8.77
2023-05-24T02:52:59.082Z,7.93
2023-05-24T02:55:27.482Z,8.90
2023-05-24T02:57:55.568Z,13.68
2023-05-24T03:00:25.571Z,14.45
2023-05-24T03:02:53.033Z,12.07
2023-05-24T03:05:20.577Z,11.98
2023-05-24T03:07:48.193Z,11.45
2023-05-24T03:10:16.105Z,11.18
2023-05-24T03:12:43.613Z,12.80
2023-05-24T03:15:11.759Z,10.38
2023-05-24T03:17:39.152Z,13.00
2023-05-24T03:20:07.477Z,11.60
2023-05-24T03:22:34.870Z,12.65
2023-05-24T03:25:02.220Z,12.65
2023-05-24T03:27:29.568Z,8.45
2023-05-24T03:29:57.044Z,11.40
2023-05-24T03:32:24.445Z,12.18
2023-05-24T03:34:52.072Z,7.32
2023-05-24T03:37:19.415Z,12.77
2023-05-24T03:39:47.578Z,7.85
2023-05-24T03:42:14.973Z,9.00
2023-05-24T03:44:42.519Z,7.63
2023-05-24T03:47:11.075Z,10.18
2023-05-24T03:49:38.512Z,9.25
2023-05-24T03:52:06.062Z,14.70
2023-05-24T03:54:33.675Z,14.43
2023-05-24T03:57:01.782Z,9.63
2023-05-24T03:59:30.902Z,8.43
2023-05-24T04:01:58.356Z,11.65
2023-05-24T04:04:26.014Z,8.73
2023-05-24T04:06:54.052Z,11.65
2023-05-24T04:09:22.951Z,12.98
2023-05-24T04:11:50.545Z,8.82
2023-05-24T04:14:17.941Z,13.80
2023-05-24T04:16:45.525Z,14.38
2023-05-24T04:19:13.253Z,14.18
2023-05-24T04:21:40.899Z,9.98
2023-05-24T04:24:08.388Z,22.55
2023-05-24T04:26:37.954Z,14.93
2023-05-24T04:29:05.536Z,23.20
2023-05-24T04:31:34.483Z,13.93
2023-05-24T04:34:02.191Z,12.70
2023-05-24T04:36:31.490Z,9.77
2023-05-24T04:39:03.074Z,13.60
2023-05-24T04:41:36.386Z,14.85
2023-05-24T04:44:03.735Z,14.45
2023-05-24T04:46:31.619Z,15.40
2023-05-24T04:48:59.329Z,22.23
2023-05-24T04:51:28.210Z,19.35
2023-05-24T04:53:55.529Z,14.05
2023-05-24T04:56:23.211Z,16.35
2023-05-24T04:58:50.848Z,16.65
2023-05-24T05:01:18.422Z,13.68
2023-05-24T05:03:46.541Z,15.60
2023-05-24T05:06:15.417Z,14.35
2023-05-24T05:08:43.693Z,18.40
2023-05-24T05:11:11.479Z,23.08
2023-05-24T05:13:38.915Z,17.48
2023-05-24T05:16:06.617Z,14.48
2023-05-24T05:18:34.672Z,24.33
2023-05-24T05:21:03.311Z,22.13
2023-05-24T05:23:31.254Z,16.67
2023-05-24T05:25:58.905Z,31.00
2023-05-24T05:28:26.383Z,28.20
2023-05-24T05:30:53.993Z,16.92
2023-05-24T05:33:22.923Z,25.00
2023-05-24T05:35:51.784Z,29.00
2023-05-24T05:38:20.996Z,26.38
2023-05-24T05:40:48.402Z,28.40
2023-05-24T05:43:17.175Z,21.33
2023-05-24T05:45:44.646Z,22.60
2023-05-24T05:48:12.168Z,20.23
2023-05-24T05:50:39.641Z,21.33
2023-05-24T05:53:07.066Z,20.40
2023-05-24T05:55:34.603Z,24.15
2023-05-24T05:58:01.956Z,18.88
2023-05-24T06:00:32.218Z,26.92
2023-05-24T06:02:59.604Z,25.13
2023-05-24T06:05:27.155Z,25.55
2023-05-24T06:07:54.610Z,23.77
2023-05-24T06:10:22.075Z,27.60
2023-05-24T06:12:49.427Z,31.40
2023-05-24T06:15:16.876Z,21.40
2023-05-24T06:17:44.472Z,24.50
2023-05-24T06:20:15.813Z,35.10
2023-05-24T06:22:44.022Z,29.17
2023-05-24T06:25:14.784Z,23.85
2023-05-24T06:27:42.731Z,32.15
2023-05-24T06:30:10.462Z,19.77
2023-05-24T06:32:38.086Z,26.23
2023-05-24T06:35:06.081Z,32.83
2023-05-24T06:37:34.614Z,30.85
2023-05-24T06:40:02.358Z,28.38
2023-05-24T06:42:30.149Z,25.00
2023-05-24T06:44:58.392Z,17.02
2023-05-24T06:47:25.913Z,24.60
2023-05-24T06:49:53.764Z,27.20
2023-05-24T06:52:24.771Z,18.77
2023-05-24T06:54:55.062Z,21.98
2023-05-24T06:57:22.565Z,24.00
2023-05-24T06:59:49.868Z,24.80
2023-05-24T07:02:19.633Z,17.83
2023-05-24T07:04:47.661Z,29.85
2023-05-24T07:07:15.253Z,34.05
2023-05-24T07:09:42.765Z,16.05
2023-05-24T07:12:10.460Z,29.80
2023-05-24T07:14:37.843Z,20.98
2023-05-24T07:17:06.554Z,36.42
2023-05-24T07:19:36.071Z,27.45
2023-05-24T07:22:03.493Z,23.75
2023-05-24T07:24:30.933Z,27.52
2023-05-24T07:26:58.506Z,23.70
2023-05-24T07:29:28.121Z,16.40
2023-05-24T07:31:56.601Z,29.48
2023-05-24T07:34:27.567Z,22.02
2023-05-24T07:36:55.065Z,23.77
2023-05-24T07:39:23.312Z,25.42
2023-05-24T07:41:51.075Z,22.77
2023-05-24T07:44:19.876Z,32.88
2023-05-24T07:46:47.878Z,26.75
2023-05-24T07:49:15.295Z,22.98
2023-05-24T07:51:42.783Z,27.23
2023-05-24T07:54:10.168Z,23.58
2023-05-24T07:56:37.854Z,27.55
2023-05-24T07:59:05.210Z,21.35
2023-05-24T08:01:34.740Z,20.75
2023-05-24T08:04:04.344Z,14.88
2023-05-24T08:06:37.147Z,19.35
2023-05-24T08:09:05.392Z,33.30
2023-05-24T08:11:32.980Z,22.88
2023-05-24T08:14:00.446Z,34.78
2023-05-24T08:16:28.011Z,24.60
2023-05-24T08:18:55.696Z,20.67
2023-05-24T08:21:23.663Z,18.27
2023-05-24T08:23:51.281Z,23.92
2023-05-24T08:26:21.099Z,18.88
2023-05-24T08:28:48.839Z,22.92
2023-05-24T08:31:16.510Z,20.30
2023-05-24T08:33:44.534Z,31.40
2023-05-24T08:36:12.271Z,22.73
2023-05-24T08:38:39.615Z,24.90
2023-05-24T08:41:08.571Z,28.13
2023-05-24T08:43:36.620Z,22.73
2023-05-24T08:46:05.759Z,25.15
2023-05-24T08:48:35.022Z,27.50
2023-05-24T08:51:04.297Z,23.83
2023-05-24T08:53:36.740Z,25.92
2023-05-24T08:56:04.825Z,22.95
2023-05-24T08:58:33.029Z,20.35
2023-05-24T09:01:02.063Z,21.10
2023-05-24T09:03:30.150Z,22.52
2023-05-24T09:05:59.036Z,22.50
2023-05-24T09:08:27.737Z,26.13
2023-05-24T09:10:56.643Z,17.15
2023-05-24T09:13:25.280Z,21.88
2023-05-24T09:15:53.858Z,18.05
2023-05-24T09:18:21.454Z,15.85
2023-05-24T09:20:49.181Z,24.52
2023-05-24T09:23:18.191Z,28.90
2023-05-24T09:25:47.083Z,27.10
2023-05-24T09:28:18.868Z,18.15
2023-05-24T09:30:57.994Z,29.17
2023-05-24T09:33:31.327Z,16.63
2023-05-24T09:36:04.622Z,17.77
2023-05-24T09:38:32.153Z,22.40
2023-05-24T09:41:07.157Z,22.67
2023-05-24T09:43:47.133Z,29.55
2023-05-24T09:46:20.108Z,18.98
2023-05-24T09:49:00.983Z,16.67
2023-05-24T09:51:28.632Z,21.23
2023-05-24T09:54:04.163Z,22.48
2023-05-24T09:56:33.816Z,27.00
2023-05-24T09:59:08.487Z,15.13
2023-05-24T10:01:36.354Z,24.60
2023-05-24T10:04:10.488Z,15.00
2023-05-24T10:06:39.030Z,18.77
2023-05-24T10:09:07.558Z,22.90
2023-05-24T10:11:40.109Z,13.38
2023-05-24T10:14:10.121Z,23.23
2023-05-24T10:16:40.315Z,13.80
2023-05-24T10:19:07.741Z,16.00
2023-05-24T10:21:38.961Z,19.73
2023-05-24T10:24:09.100Z,16.98
2023-05-24T10:26:38.852Z,22.40
2023-05-24T10:29:09.763Z,15.13
2023-05-24T10:31:41.227Z,16.30
2023-05-24T10:34:10.428Z,16.77
2023-05-24T10:36:40.627Z,17.30
2023-05-24T10:39:14.079Z,18.02
2023-05-24T10:41:44.005Z,14.55
2023-05-24T10:44:17.509Z,12.45
2023-05-24T10:47:07.382Z,15.43
2023-05-24T10:49:34.935Z,12.90
2023-05-24T10:52:07.096Z,10.43
2023-05-24T10:54:35.762Z,11.20
2023-05-24T10:57:04.808Z,18.27
2023-05-24T10:59:39.824Z,13.68
2023-05-24T11:02:15.142Z,14.73
2023-05-24T11:04:46.588Z,11.77
2023-05-24T11:07:15.302Z,20.85
2023-05-24T11:09:46.837Z,18.17
2023-05-24T11:12:17.870Z,14.75
2023-05-24T11:14:54.844Z,15.38
2023-05-24T11:17:23.921Z,17.10
2023-05-24T11:19:57.832Z,13.02
2023-05-24T11:22:27.872Z,17.52
2023-05-24T11:24:57.207Z,15.38
2023-05-24T11:27:25.512Z,15.18
2023-05-24T11:29:53.773Z,14.38
2023-05-24T11:32:22.017Z,18.38
2023-05-24T11:34:50.042Z,18.90
2023-05-24T11:37:18.785Z,18.30
2023-05-24T11:39:54.350Z,11.27
2023-05-24T11:42:23.359Z,13.25
2023-05-24T11:44:51.796Z,12.73
2023-05-24T11:47:20.905Z,20.25
2023-05-24T11:49:52.289Z,13.23
2023-05-24T11:52:21.390Z,11.05
2023-05-24T11:54:49.619Z,15.63
2023-05-24T11:57:23.010Z,15.80
2023-05-24T11:59:50.445Z,12.68
2023-05-24T12:02:18.501Z,16.05
2023-05-24T12:04:46.954Z,17.38
2023-05-24T12:07:16.652Z,15.13
2023-05-24T12:09:44.244Z,14.73
2023-05-24T12:12:11.797Z,15.13
2023-05-24T12:14:39.719Z,12.32
2023-05-24T12:17:16.748Z,9.25
2023-05-24T12:19:48.752Z,16.83
2023-05-24T12:22:16.099Z,20.27
2023-05-24T12:24:43.886Z,13.77
2023-05-24T12:27:11.885Z,15.07
2023-05-24T12:29:41.877Z,12.85
2023-05-24T12:32:13.890Z,17.70
2023-05-24T12:34:43.614Z,10.93
2023-05-24T12:37:14.135Z,18.48
2023-05-24T12:39:43.326Z,10.52
2023-05-24T12:42:13.590Z,8.93
2023-05-24T12:44:42.089Z,13.60
2023-05-24T12:47:10.165Z,14.98
2023-05-24T12:49:37.705Z,13.95
2023-05-24T12:52:06.839Z,14.02
2023-05-24T12:54:34.888Z,11.68
2023-05-24T12:57:05.243Z,11.50
2023-05-24T12:59:34.022Z,16.67
2023-05-24T13:02:02.123Z,15.88
2023-05-24T13:04:31.830Z,14.85
2023-05-24T13:06:59.398Z,13.20
2023-05-24T13:09:27.018Z,11.63
2023-05-24T13:11:55.888Z,9.63
2023-05-24T13:14:23.809Z,11.27
2023-05-24T13:16:51.437Z,15.25
2023-05-24T13:19:19.098Z,10.63
2023-05-24T13:21:46.447Z,12.10
2023-05-24T13:24:16.362Z,14.50
2023-05-24T13:26:44.868Z,9.50
2023-05-24T13:29:28.029Z,8.40
2023-05-24T13:31:58.716Z,10.98
2023-05-24T13:34:27.107Z,14.25
2023-05-24T13:36:55.256Z,19.17
2023-05-24T13:39:22.935Z,15.40
2023-05-24T13:41:50.625Z,13.43
2023-05-24T13:44:18.327Z,18.83
2023-05-24T13:46:46.401Z,10.27
2023-05-24T13:49:13.903Z,9.93
2023-05-24T13:51:41.419Z,15.80
2023-05-24T13:54:09.089Z,9.77
2023-05-24T13:56:36.854Z,14.82
2023-05-24T13:59:05.382Z,15.93
2023-05-24T14:01:34.295Z,12.38
2023-05-24T14:04:02.575Z,16.40
2023-05-24T14:06:30.417Z,14.98
2023-05-24T14:08:58.239Z,12.80
2023-05-24T14:11:26.412Z,16.60
2023-05-24T14:16:25.112Z,10.80
2023-05-24T14:18:52.818Z,10.73
2023-05-24T14:21:21.837Z,14.38
2023-05-24T14:23:49.880Z,15.50
2023-05-24T14:26:18.583Z,12.20
2023-05-24T14:28:46.702Z,13.82
2023-05-24T14:31:14.157Z,14.25
2023-05-24T14:33:41.575Z,12.82
2023-05-24T14:36:09.470Z,19.35
2023-05-24T14:38:36.869Z,11.90
2023-05-24T14:41:06.725Z,12.07
2023-05-24T14:43:34.097Z,10.55
2023-05-24T14:46:01.479Z,20.65
2023-05-24T14:48:28.877Z,10.48
2023-05-24T14:50:56.256Z,14.82
2023-05-24T14:53:23.646Z,18.83
2023-05-24T14:55:51.147Z,15.80
2023-05-24T14:58:18.708Z,12.32
2023-05-24T15:00:47.290Z,11.10
2023-05-24T15:03:15.085Z,22.85
2023-05-24T15:05:43.265Z,14.63
2023-05-24T15:08:11.638Z,15.10
2023-05-24T15:10:39.864Z,16.67
2023-05-24T15:13:07.714Z,16.92
2023-05-24T15:15:35.246Z,13.32
2023-05-24T15:18:02.783Z,15.45
2023-05-24T15:20:30.507Z,15.20
2023-05-24T15:22:57.901Z,12.80
2023-05-24T15:25:25.315Z,13.55
2023-05-24T15:27:52.866Z,13.25
2023-05-24T15:30:20.602Z,17.05
2023-05-24T15:32:48.501Z,13.63
2023-05-24T15:35:17.574Z,13.40
2023-05-24T15:37:45.821Z,12.57
2023-05-24T15:40:13.778Z,23.13
2023-05-24T15:42:41.270Z,14.20
2023-05-24T15:45:09.399Z,12.07
2023-05-24T15:47:39.863Z,13.40
2023-05-24T15:50:08.938Z,16.88
2023-05-24T15:52:36.930Z,16.48
2023-05-24T15:55:04.949Z,12.88
2023-05-24T15:57:32.351Z,14.98
2023-05-24T15:59:59.854Z,15.98
2023-05-24T16:02:28.638Z,14.73
2023-05-24T16:04:57.413Z,14.80
2023-05-24T16:07:27.767Z,9.65
2023-05-24T16:09:55.161Z,15.07
2023-05-24T16:12:22.604Z,14.77
2023-05-24T16:14:50.256Z,12.75
2023-05-24T16:17:17.714Z,12.50
2023-05-24T16:19:49.576Z,14.07
2023-05-24T16:22:17.313Z,14.95
2023-05-24T16:24:44.801Z,13.15
2023-05-24T16:27:12.462Z,9.65
2023-05-24T16:29:39.937Z,13.27
2023-05-24T16:32:08.704Z,12.82
2023-05-24T16:34:51.990Z,12.95
2023-05-24T16:37:22.882Z,11.88
2023-05-24T16:39:50.270Z,11.25
2023-05-24T16:42:17.660Z,12.27
2023-05-24T16:44:45.011Z,13.32
2023-05-24T16:47:12.685Z,13.68
2023-05-24T16:49:40.294Z,10.25
2023-05-24T16:52:07.745Z,15.85
2023-05-24T16:54:35.088Z,10.68
2023-05-24T16:57:02.643Z,15.40
2023-05-24T16:59:38.484Z,13.82
2023-05-24T17:02:15.052Z,12.48
2023-05-24T17:04:42.446Z,11.55
2023-05-24T17:07:09.831Z,12.40
2023-05-24T17:09:38.283Z,14.35
2023-05-24T17:12:06.825Z,8.85
2023-05-24T17:14:34.315Z,11.57
2023-05-24T17:17:01.655Z,17.10
2023-05-24T17:19:29.074Z,13.45
2023-05-24T17:21:57.133Z,17.42
2023-05-24T17:24:27.677Z,11.98
2023-05-24T17:26:56.341Z,15.13
2023-05-24T17:29:24.016Z,12.10
2023-05-24T17:31:51.377Z,10.40
2023-05-24T17:34:18.781Z,16.58
2023-05-24T17:36:46.172Z,12.65
2023-05-24T17:39:13.597Z,17.30
2023-05-24T17:41:41.311Z,13.27
2023-05-24T17:44:08.746Z,18.80
2023-05-24T17:46:38.961Z,13.68
2023-05-24T17:49:08.046Z,12.20
2023-05-24T17:51:35.751Z,19.23
2023-05-24T17:54:03.210Z,9.00
2023-05-24T17:56:31.264Z,13.25
2023-05-24T17:58:58.960Z,9.35
2023-05-24T18:01:28.043Z,18.60
2023-05-24T18:03:55.707Z,11.93
2023-05-24T18:06:23.276Z,14.00
2023-05-24T18:08:50.743Z,16.67
2023-05-24T18:11:18.179Z,19.92
2023-05-24T18:13:45.957Z,18.42
2023-05-24T18:16:15.227Z,17.13
2023-05-24T18:18:44.405Z,16.75
2023-05-24T18:21:13.137Z,22.50
2023-05-24T18:23:40.579Z,18.00
2023-05-24T18:26:09.856Z,24.08
2023-05-24T18:28:38.648Z,22.10
2023-05-24T18:31:08.692Z,25.40
2023-05-24T18:33:38.057Z,21.55
2023-05-24T18:36:05.876Z,14.38
2023-05-24T18:38:37.393Z,14.73
2023-05-24T18:41:06.645Z,17.75
2023-05-24T18:43:34.389Z,19.92
2023-05-24T18:46:02.060Z,18.15
2023-05-24T18:48:29.432Z,22.73
2023-05-24T18:50:56.863Z,18.40
2023-05-24T18:53:25.795Z,25.45
2023-05-24T18:55:53.210Z,24.30
2023-05-24T18:58:20.789Z,25.60
2023-05-24T19:00:48.121Z,24.80
2023-05-24T19:03:16.129Z,19.58
2023-05-24T19:05:44.279Z,30.08
2023-05-24T19:08:11.799Z,27.83
2023-05-24T19:10:39.221Z,17.85
2023-05-24T19:13:06.763Z,23.63
2023-05-24T19:15:37.388Z,21.67
2023-05-24T19:18:05.030Z,20.08
2023-05-24T19:20:32.482Z,23.67
2023-05-24T19:23:04.416Z,21.80
2023-05-24T19:25:31.947Z,24.05
2023-05-24T19:28:00.703Z,20.38
2023-05-24T19:30:29.712Z,20.58
2023-05-24T19:32:57.149Z,21.77
2023-05-24T19:39:13.059Z,24.00
2023-05-24T19:41:41.087Z,23.65
2023-05-24T19:44:08.649Z,30.40
2023-05-24T19:46:37.182Z,24.75
2023-05-24T19:49:04.833Z,23.35
2023-05-24T19:51:32.289Z,28.85
2023-05-24T19:53:59.763Z,23.90
2023-05-24T19:56:27.668Z,25.33
2023-05-24T19:58:55.126Z,27.02
2023-05-24T20:01:22.556Z,30.67
2023-05-24T20:03:50.219Z,14.20
2023-05-24T20:06:18.057Z,24.08
2023-05-24T20:08:46.044Z,25.33
2023-05-24T20:11:14.418Z,21.60
2023-05-24T20:13:41.921Z,22.25
2023-05-24T20:16:09.315Z,20.02
2023-05-24T20:18:36.777Z,26.83
2023-05-24T20:21:05.436Z,24.60
2023-05-24T20:23:32.873Z,20.70
2023-05-24T20:26:01.625Z,22.40
2023-05-24T20:28:31.990Z,23.63
2023-05-24T20:31:01.293Z,14.07
2023-05-24T20:33:28.786Z,21.17
2023-05-24T20:35:56.380Z,18.83
2023-05-24T20:38:24.314Z,21.67
2023-05-24T20:40:51.848Z,15.15
2023-05-24T20:43:19.337Z,22.20
2023-05-24T20:45:47.113Z,24.83
2023-05-24T20:48:14.677Z,27.90
2023-05-24T20:50:42.145Z,20.50
2023-05-24T20:53:09.510Z,20.67
2023-05-24T20:55:37.014Z,17.30
2023-05-24T20:58:04.420Z,22.92
2023-05-24T21:00:32.036Z,23.58
2023-05-24T21:02:59.785Z,17.25
2023-05-24T21:05:27.221Z,14.52
2023-05-24T21:07:55.811Z,23.48
2023-05-24T21:10:23.211Z,23.00
2023-05-24T21:12:50.756Z,21.42
2023-05-24T21:15:18.221Z,25.00
2023-05-24T21:17:45.907Z,22.83
2023-05-24T21:20:13.288Z,23.60
2023-05-24T21:22:40.878Z,25.45
2023-05-24T21:25:08.832Z,24.90
2023-05-24T21:27:37.296Z,28.63
2023-05-24T21:30:05.057Z,24.90
2023-05-24T21:32:32.516Z,24.15
2023-05-24T21:34:59.968Z,28.77
2023-05-24T21:37:27.508Z,24.55
2023-05-24T21:39:55.066Z,31.17
2023-05-24T21:42:22.405Z,26.38
2023-05-24T21:44:50.182Z,19.08
2023-05-24T21:47:17.608Z,22.13
2023-05-24T21:49:45.702Z,24.63
2023-05-24T21:52:13.011Z,28.10
2023-05-24T21:54:40.619Z,31.00
2023-05-24T21:57:08.256Z,22.98
2023-05-24T21:59:35.921Z,24.92
2023-05-24T22:02:03.473Z,28.48
2023-05-24T22:04:30.960Z,21.17
2023-05-24T22:06:58.359Z,24.02
2023-05-24T22:09:27.130Z,21.92
2023-05-24T22:11:54.466Z,22.02
2023-05-24T22:14:24.324Z,26.73
2023-05-24T22:16:51.800Z,24.52
2023-05-24T22:19:28.536Z,18.17
2023-05-24T22:22:06.016Z,23.30
2023-05-24T22:24:33.414Z,21.33
2023-05-24T22:27:01.492Z,29.88
2023-05-24T22:29:29.128Z,18.65
2023-05-24T22:31:56.759Z,29.77
2023-05-24T22:34:30.228Z,25.48
2023-05-24T22:36:58.095Z,26.63
2023-05-24T22:39:25.407Z,28.73
2023-05-24T22:41:53.863Z,23.00
2023-05-24T22:44:21.639Z,20.33
2023-05-24T22:46:54.866Z,32.45
2023-05-24T22:49:23.100Z,32.72
2023-05-24T22:51:51.025Z,28.60
2023-05-24T22:54:18.637Z,25.42
2023-05-24T22:56:46.500Z,27.38
2023-05-24T22:59:14.208Z,26.63
2023-05-24T23:01:41.622Z,21.05
2023-05-24T23:04:20.531Z,31.42
2023-05-24T23:06:52.559Z,24.45
2023-05-24T23:09:34.947Z,27.70
2023-05-24T23:12:08.096Z,28.48
2023-05-24T23:14:39.379Z,22.95
2023-05-24T23:17:10.537Z,25.15
2023-05-24T23:19:42.597Z,32.25
2023-05-24T23:22:23.620Z,23.98
2023-05-24T23:24:51.228Z,25.83
2023-05-24T23:27:18.671Z,29.13
2023-05-24T23:29:46.066Z,34.10
2023-05-24T23:32:13.473Z,27.48
2023-05-24T23:34:41.258Z,28.63
2023-05-24T23:37:08.691Z,31.75
2023-05-24T23:39:36.353Z,34.63
2023-05-24T23:42:04.158Z,25.60
2023-05-24T23:44:31.589Z,27.90
2023-05-24T23:46:59.154Z,27.33
2023-05-24T23:49:26.807Z,23.55
2023-05-24T23:51:54.223Z,28.92
2023-05-24T23:54:21.595Z,36.53
2023-05-24T23:56:49.004Z,27.63
2023-05-24T23:59:19.909Z,31.80
